TVSA

Argyle Airport

Argyle, Saint Vincent and the Grenadines
TAF TVSA 180500Z 1806/1906 06008KT 9999 SCT018 TEMPO 1806/1816 4000 TSRA BKN014 SCT015CB
Issued Valid From Valid To
Aug-18 @ 05:00 UTC
(4 hours ago)
Aug-18 @ 06:00 UTC
(3 hours ago)
Aug-19 @ 06:00 UTC
(in 21 hours)
Aug-18 @ 06:00 to Aug-19 @ 06:00
TAF TVSA 180500Z 1806/1906 06008KT 9999 SCT018
Wind Visibility Clouds
60° at 8 knots 10,000+ meters
  • Scattered at 1,800' AGL
Temporary Aug-18 @ 06:00 to Aug-18 @ 16:00
TEMPO 1806/1816 4000 TSRA BKN014 SCT015CB
Visibility Clouds Conditions
4,007 meters
  • Broken at 1,400' AGL
  • Scattered at 1,500' AGL
  • Thunderstorm
  • Rain
TAF TVSA 180500Z 1806/1906 06008KT 9999 SCT018 TEMPO 1806/1816 4000 TSRA BKN014 SCT015CB
Issued Aug-18 @ 05:00 UTC
(4 hours ago)
Valid From Aug-18 @ 06:00 UTC
(3 hours ago)
Valid To Aug-19 @ 06:00 UTC
(in 21 hours)
Aug-18 @ 06:00 - Aug-19 @ 06:00
Wind Visibility
60° at 8 knots 10,000+ meters
Clouds
  • Scattered at 1,800' AGL
Temporary Aug-18 @ 06:00 - Aug-18 @ 16:00
Clouds
  • Broken at 1,400' AGL
  • Scattered at 1,500' AGL
Conditions
  • Thunderstorm
  • Rain